Time;durP1;ratioP1;P1;durP2;ratioP2;P2;SDS_P1;SDS_P2;PMS_P1;PMS_P2;Temp;Humidity;BMP_temperature;BMP_pressure;BME280_temperature;BME280_humidity;BME280_pressure;Samples;Min_cycle;Max_cycle;Signal;HPM_P1;HPM_P2
2023/09/17 00:01:06;;;;;;;10.70;8.57;;;;;;;20.43;63.12;96112.19;4931439;29;20411;-68
2023/09/17 00:03:32;;;;;;;9.60;8.60;;;;;;;20.42;63.25;96113.13;4931187;29;20510;-68
2023/09/17 00:05:58;;;;;;;11.30;8.80;;;;;;;20.37;63.56;96119.84;4931209;29;20167;-70
2023/09/17 00:08:23;;;;;;;9.40;8.30;;;;;;;20.33;63.37;96110.44;4930880;29;20250;-68
2023/09/17 00:10:49;;;;;;;10.60;8.03;;;;;;;20.32;63.66;96106.94;4931068;29;20198;-68
2023/09/17 00:13:15;;;;;;;8.83;7.70;;;;;;;20.36;63.49;96110.16;4930988;29;20226;-67
2023/09/17 00:15:40;;;;;;;10.13;7.70;;;;;;;20.31;63.46;96107.91;4930952;29;20171;-68
2023/09/17 00:18:06;;;;;;;20.27;8.70;;;;;;;20.25;63.79;96097.78;4930650;29;21100;-68
2023/09/17 00:20:31;;;;;;;8.47;7.60;;;;;;;20.37;63.41;96099.38;4930769;29;20289;-69
2023/09/17 00:22:57;;;;;;;11.60;7.90;;;;;;;20.32;63.69;96109.59;4931171;29;20182;-67
2023/09/17 00:25:22;;;;;;;10.47;8.00;;;;;;;20.23;64.27;96105.91;4930450;29;20544;-69
2023/09/17 00:27:47;;;;;;;8.27;7.50;;;;;;;20.16;64.70;96104.75;4930326;29;20807;-69
2023/09/17 00:30:13;;;;;;;8.80;7.63;;;;;;;20.03;64.86;96112.13;4930228;29;20213;-67
2023/09/17 00:32:39;;;;;;;9.20;7.67;;;;;;;20.06;64.81;96109.22;4930460;29;20186;-69
2023/09/17 00:35:05;;;;;;;11.40;7.50;;;;;;;20.10;64.46;96110.63;4930549;29;21018;-68
2023/09/17 00:37:31;;;;;;;11.13;7.93;;;;;;;20.04;64.95;96105.84;4930118;29;20284;-68
2023/09/17 00:39:57;;;;;;;11.70;8.20;;;;;;;20.11;64.70;96107.00;4930002;29;20422;-68
2023/09/17 00:42:23;;;;;;;15.47;8.37;;;;;;;20.07;64.82;96109.06;4930123;29;20214;-67
2023/09/17 00:44:48;;;;;;;10.40;8.10;;;;;;;19.80;66.53;96106.13;4930155;29;20453;-68
2023/09/17 00:47:14;;;;;;;11.00;7.87;;;;;;;19.81;66.53;96099.81;4929964;29;20596;-68
2023/09/17 00:49:40;;;;;;;8.97;8.07;;;;;;;19.67;66.97;96107.13;4929919;29;20206;-68
2023/09/17 00:52:14;;;;;;;13.60;9.20;;;;;;;19.84;66.38;96105.75;4930411;29;20596;-68
2023/09/17 00:54:40;;;;;;;10.63;8.60;;;;;;;19.98;66.07;96109.84;4930205;29;20206;-66
2023/09/17 00:57:06;;;;;;;9.50;8.60;;;;;;;20.09;65.59;96106.28;4929950;29;20430;-68
2023/09/17 00:59:31;;;;;;;7.80;7.10;;;;;;;20.05;65.54;96104.84;4929728;29;20509;-68
2023/09/17 01:01:56;;;;;;;11.40;7.80;;;;;;;20.08;65.30;96102.78;4930047;29;20515;-69
2023/09/17 01:04:23;;;;;;;9.10;7.93;;;;;;;20.05;65.58;96096.84;4929183;29;20233;-69
2023/09/17 01:06:52;;;;;;;12.20;8.40;;;;;;;19.97;66.00;96105.50;4928218;29;20183;-68
2023/09/17 01:09:18;;;;;;;11.27;8.70;;;;;;;19.86;66.39;96103.75;4928493;29;20557;-68
2023/09/17 01:11:43;;;;;;;13.00;8.20;;;;;;;19.90;66.37;96099.03;4930061;29;20924;-69
2023/09/17 01:14:12;;;;;;;8.90;8.00;;;;;;;19.97;66.00;96104.69;4930005;29;20419;-68
2023/09/17 01:16:41;;;;;;;10.57;8.67;;;;;;;19.90;66.15;96103.53;4929908;29;20182;-68
2023/09/17 01:19:14;;;;;;;10.10;9.20;;;;;;;19.90;66.31;96107.03;4929459;29;20486;-68
2023/09/17 01:22:06;;;;;;;12.73;8.57;;;;;;;19.74;66.86;96104.81;4929741;29;20465;-67
2023/09/17 01:24:56;;;;;;;12.00;8.17;;;;;;;19.64;67.45;96099.41;4929799;29;20502;-68
2023/09/17 01:27:23;;;;;;;12.80;9.17;;;;;;;19.45;68.06;96112.59;4914413;29;20416;-67
2023/09/17 01:29:49;;;;;;;8.63;7.33;;;;;;;19.50;67.88;96112.19;4910280;29;20460;-72
2023/09/17 01:32:17;;;;;;;8.27;7.57;;;;;;;19.64;66.87;96118.03;4910366;29;20412;-68
2023/09/17 01:34:45;;;;;;;8.83;7.93;;;;;;;19.60;66.54;96119.28;4910490;29;20519;-68
2023/09/17 01:37:17;;;;;;;11.93;8.33;;;;;;;19.69;66.04;96117.69;4910576;29;20462;-67
2023/09/17 01:39:47;;;;;;;8.30;7.60;;;;;;;19.68;65.51;96118.66;4910813;29;20427;-68
2023/09/17 01:42:15;;;;;;;9.83;7.47;;;;;;;19.65;65.48;96116.22;4910763;29;20412;-68
2023/09/17 01:44:42;;;;;;;11.43;7.90;;;;;;;19.66;65.48;96118.75;4910449;29;20498;-69
2023/09/17 01:47:09;;;;;;;8.83;7.90;;;;;;;19.67;65.32;96128.41;4910326;29;20420;-67
2023/09/17 01:49:36;;;;;;;10.00;7.20;;;;;;;19.66;65.27;96123.25;4909979;29;20542;-67
2023/09/17 01:52:02;;;;;;;8.90;7.50;;;;;;;19.63;65.51;96129.69;4910281;29;20502;-67
2023/09/17 01:54:28;;;;;;;16.17;7.90;;;;;;;19.44;66.18;96135.69;4910239;29;20411;-67
2023/09/17 01:56:53;;;;;;;7.43;6.73;;;;;;;19.48;66.08;96125.63;4910418;29;20427;-68
2023/09/17 01:59:19;;;;;;;9.47;7.67;;;;;;;19.56;65.74;96122.31;4911428;29;20203;-68
2023/09/17 02:01:44;;;;;;;11.83;7.23;;;;;;;19.58;65.37;96115.06;4915502;29;20756;-68
2023/09/17 02:04:09;;;;;;;9.07;7.57;;;;;;;19.72;65.16;96117.41;4914395;29;20234;-69
2023/09/17 02:06:36;;;;;;;7.20;6.50;;;;;;;19.82;64.55;96120.16;4914388;29;20193;-67
2023/09/17 02:09:05;;;;;;;7.00;6.37;;;;;;;19.78;64.72;96126.72;4913612;29;20734;-69
2023/09/17 02:11:31;;;;;;;9.87;7.93;;;;;;;19.65;65.34;96122.41;4913066;29;20439;-70
2023/09/17 02:13:57;;;;;;;10.37;7.67;;;;;;;19.76;64.63;96128.66;4918791;29;20411;-69
2023/09/17 02:16:22;;;;;;;11.40;7.80;;;;;;;19.74;64.69;96130.59;4929180;29;20422;-69
2023/09/17 02:18:48;;;;;;;8.40;7.67;;;;;;;19.74;64.81;96130.59;4930104;29;20255;-68
2023/09/17 02:21:13;;;;;;;8.23;7.43;;;;;;;19.76;64.87;96136.66;4947196;29;20194;-68
2023/09/17 02:23:38;;;;;;;8.53;7.70;;;;;;;19.72;65.00;96130.72;4964664;29;20185;-69
2023/09/17 02:26:04;;;;;;;9.60;7.97;;;;;;;19.70;65.43;96130.03;4962320;29;20171;-69
2023/09/17 02:28:29;;;;;;;11.30;7.90;;;;;;;19.66;65.38;96128.56;4947890;29;20247;-68
2023/09/17 02:30:54;;;;;;;9.20;8.00;;;;;;;19.62;65.78;96127.97;4932854;29;20218;-68
2023/09/17 02:33:20;;;;;;;11.50;7.70;;;;;;;19.58;65.78;96134.56;4932959;29;20167;-68
2023/09/17 02:35:45;;;;;;;9.10;7.77;;;;;;;19.57;65.61;96132.00;4932839;29;20197;-68
2023/09/17 02:38:10;;;;;;;9.07;7.17;;;;;;;19.57;65.62;96132.84;4932584;29;20735;-69
2023/09/17 02:40:36;;;;;;;11.77;7.97;;;;;;;19.55;65.69;96131.28;4933449;29;20208;-68
2023/09/17 02:43:01;;;;;;;9.30;7.80;;;;;;;19.46;65.96;96136.44;4932415;29;20186;-68
2023/09/17 02:45:27;;;;;;;9.30;8.37;;;;;;;19.45;65.92;96125.91;4932595;29;20186;-68
2023/09/17 02:47:53;;;;;;;9.33;7.87;;;;;;;19.49;65.80;96127.34;4932232;29;20880;-68
2023/09/17 02:50:19;;;;;;;8.53;7.33;;;;;;;19.33;66.25;96122.44;4932302;29;20202;-68
2023/09/17 02:52:45;;;;;;;8.60;7.80;;;;;;;19.30;66.35;96119.19;4932619;29;20182;-67
2023/09/17 02:55:11;;;;;;;10.00;7.43;;;;;;;19.35;66.27;96114.34;4932187;29;20893;-68
2023/09/17 02:57:36;;;;;;;10.43;7.70;;;;;;;19.32;66.24;96109.25;4932030;29;20178;-68
2023/09/17 03:00:05;;;;;;;9.30;8.03;;;;;;;19.19;66.54;96117.44;4932224;29;20273;-68
2023/09/17 03:02:30;;;;;;;9.10;8.17;;;;;;;19.10;67.27;96127.00;4932153;29;20178;-69
2023/09/17 03:04:58;;;;;;;7.97;7.03;;;;;;;19.03;67.84;96139.97;4932129;29;20761;-68
2023/09/17 03:07:24;;;;;;;9.77;7.03;;;;;;;19.03;67.87;96136.47;4931799;29;20651;-69
2023/09/17 03:09:49;;;;;;;8.80;7.90;;;;;;;18.89;68.31;96140.25;4932073;29;20481;-69
2023/09/17 03:12:15;;;;;;;8.83;7.10;;;;;;;18.89;68.05;96144.72;4931511;29;20447;-69
2023/09/17 03:14:40;;;;;;;15.10;8.20;;;;;;;18.97;67.70;96144.97;4934395;29;20182;-69
2023/09/17 03:17:06;;;;;;;8.10;7.00;;;;;;;18.88;68.05;96149.19;4936976;29;20641;-68
2023/09/17 03:19:31;;;;;;;8.77;7.63;;;;;;;18.63;69.04;96139.66;4950414;28;20478;-68
2023/09/17 03:21:57;;;;;;;10.80;8.37;;;;;;;18.71;68.70;96141.69;4941250;29;20713;-69
2023/09/17 03:24:22;;;;;;;20.23;8.27;;;;;;;18.80;68.39;96147.19;4931708;29;20242;-69
2023/09/17 03:26:48;;;;;;;8.63;7.67;;;;;;;18.76;68.69;96137.75;4931809;29;20179;-69
2023/09/17 03:29:13;;;;;;;10.00;8.80;;;;;;;18.88;68.33;96146.53;4931218;29;20778;-68
2023/09/17 03:31:41;;;;;;;11.33;8.07;;;;;;;19.06;67.83;96146.84;4931767;29;20185;-68
2023/09/17 03:34:06;;;;;;;10.37;9.37;;;;;;;19.04;68.06;96146.16;4931680;29;20783;-68
2023/09/17 03:36:35;;;;;;;9.50;8.50;;;;;;;19.01;68.42;96144.56;4931787;29;20495;-68
2023/09/17 03:39:01;;;;;;;13.23;9.77;;;;;;;18.78;69.71;96151.75;4931186;29;20190;-70
2023/09/17 03:41:26;;;;;;;11.47;10.27;;;;;;;18.78;70.23;96159.75;4931455;29;20485;-68
2023/09/17 03:43:52;;;;;;;10.10;9.10;;;;;;;18.80;70.13;96159.59;4931640;29;20713;-69
2023/09/17 03:46:18;;;;;;;14.33;9.80;;;;;;;18.87;70.03;96157.28;4931593;29;20170;-69
2023/09/17 03:48:45;;;;;;;10.20;9.27;;;;;;;18.88;69.92;96149.19;4930822;29;20203;-68
2023/09/17 03:51:10;;;;;;;11.70;10.20;;;;;;;18.84;70.25;96147.75;4931591;29;20764;-69
2023/09/17 03:53:36;;;;;;;10.23;9.23;;;;;;;18.80;70.60;96147.19;4931268;29;20478;-68
2023/09/17 03:56:01;;;;;;;13.87;9.67;;;;;;;18.86;70.29;96150.31;4931532;29;20198;-68
2023/09/17 03:58:26;;;;;;;12.93;10.37;;;;;;;18.81;70.62;96159.47;4931271;29;20171;-68
2023/09/17 04:00:52;;;;;;;10.77;9.20;;;;;;;18.74;70.82;96160.06;4931127;29;20175;-68
2023/09/17 04:03:19;;;;;;;11.40;10.30;;;;;;;18.71;70.97;96161.16;4930970;29;20195;-68
2023/09/17 04:05:46;;;;;;;12.10;9.43;;;;;;;18.71;71.11;96163.81;4930983;29;20179;-67
2023/09/17 04:08:12;;;;;;;10.30;9.20;;;;;;;18.68;71.12;96163.22;4930693;29;21338;-68
2023/09/17 04:10:37;;;;;;;11.03;9.93;;;;;;;18.72;70.96;96159.34;4930977;29;20529;-67
2023/09/17 04:13:03;;;;;;;11.63;9.70;;;;;;;18.66;71.31;96158.03;4930972;29;20302;-67
2023/09/17 04:15:28;;;;;;;10.00;9.00;;;;;;;18.68;71.03;96150.75;4930973;29;20205;-67
2023/09/17 04:17:54;;;;;;;11.33;10.13;;;;;;;18.51;71.93;96148.63;4929726;29;20185;-69
2023/09/17 04:20:20;;;;;;;13.40;10.67;;;;;;;18.54;71.70;96149.25;4932682;29;20202;-69
2023/09/17 04:22:50;;;;;;;13.40;9.60;;;;;;;18.56;71.35;96151.75;4927700;29;20930;-68
2023/09/17 04:25:18;;;;;;;13.23;9.27;;;;;;;18.66;71.16;96154.50;4931006;29;20183;-67
2023/09/17 04:27:44;;;;;;;13.30;9.77;;;;;;;18.70;70.87;96143.50;4930856;29;20509;-69
2023/09/17 04:30:12;;;;;;;13.50;11.50;;;;;;;18.55;71.41;96147.41;4931841;29;20549;-67
2023/09/17 04:32:40;;;;;;;15.77;10.20;;;;;;;18.47;71.70;96153.31;4932527;29;20187;-67
2023/09/17 04:35:10;;;;;;;10.67;9.67;;;;;;;18.55;71.30;96172.19;4936315;29;20417;-68
2023/09/17 04:37:37;;;;;;;18.50;9.60;;;;;;;18.54;71.32;96170.50;4932969;29;20411;-68
2023/09/17 04:40:08;;;;;;;18.60;9.90;;;;;;;18.49;71.50;96159.38;4932723;29;20526;-69
2023/09/17 04:42:35;;;;;;;11.23;10.23;;;;;;;18.51;71.24;96165.41;4933327;29;20414;-68
2023/09/17 04:45:01;;;;;;;11.40;10.27;;;;;;;18.45;71.46;96167.69;4930247;29;20465;-69
2023/09/17 04:47:28;;;;;;;12.67;11.03;;;;;;;18.40;71.12;96171.59;4912710;29;20454;-69
2023/09/17 04:49:53;;;;;;;10.50;8.90;;;;;;;18.34;71.99;96164.09;4930056;29;20462;-69
2023/09/17 04:52:18;;;;;;;9.50;8.50;;;;;;;18.54;70.98;96172.28;4930107;29;20426;-68
2023/09/17 04:54:44;;;;;;;16.80;10.10;;;;;;;18.47;70.96;96171.09;4930282;29;20203;-68
2023/09/17 04:57:09;;;;;;;17.27;10.00;;;;;;;18.43;71.24;96170.50;4930148;29;20219;-68
2023/09/17 04:59:34;;;;;;;15.03;9.80;;;;;;;18.48;70.92;96170.97;4930056;29;20199;-68
2023/09/17 05:02:00;;;;;;;18.80;9.37;;;;;;;18.45;70.93;96173.88;4930227;29;20194;-67
2023/09/17 05:04:26;;;;;;;53.77;13.80;;;;;;;18.49;70.80;96169.16;4930286;29;20189;-67
2023/09/17 05:06:52;;;;;;;16.67;10.20;;;;;;;18.11;72.20;96168.53;4929769;29;20195;-69
2023/09/17 05:09:17;;;;;;;10.27;9.27;;;;;;;17.75;73.97;96162.41;4929513;29;20521;-69
2023/09/17 05:11:42;;;;;;;11.37;10.27;;;;;;;17.71;74.43;96162.78;4929590;29;20894;-68
2023/09/17 05:14:09;;;;;;;10.57;9.47;;;;;;;17.51;74.93;96159.81;4929807;29;20258;-68
2023/09/17 05:16:35;;;;;;;16.90;10.30;;;;;;;17.58;74.65;96162.03;4929773;29;20784;-68
2023/09/17 05:19:01;;;;;;;14.80;10.50;;;;;;;17.92;73.26;96163.81;4929152;29;21027;-69
2023/09/17 05:21:27;;;;;;;12.13;9.70;;;;;;;18.09;72.90;96166.97;4929573;29;20518;-69
2023/09/17 05:23:52;;;;;;;26.03;10.30;;;;;;;18.34;71.90;96176.53;4928886;29;20577;-70
2023/09/17 05:26:17;;;;;;;14.70;9.63;;;;;;;18.41;71.66;96183.06;4928933;29;20202;-69
2023/09/17 05:28:44;;;;;;;12.67;10.00;;;;;;;18.50;71.21;96181.50;4929437;29;20641;-68
2023/09/17 05:31:09;;;;;;;9.80;8.60;;;;;;;18.33;71.87;96182.78;4929908;29;20175;-69
2023/09/17 05:33:35;;;;;;;15.73;9.40;;;;;;;18.19;72.16;96178.59;4929498;29;20426;-69
2023/09/17 05:36:00;;;;;;;11.90;9.30;;;;;;;18.00;73.15;96184.47;4929068;29;20179;-69
2023/09/17 05:38:29;;;;;;;10.07;9.10;;;;;;;17.98;73.37;96191.72;4929437;29;20196;-68
2023/09/17 05:40:54;;;;;;;30.03;10.50;;;;;;;18.09;72.96;96199.66;4929697;29;20206;-68
2023/09/17 05:43:20;;;;;;;21.60;12.37;;;;;;;18.22;72.43;96201.41;4929254;29;20453;-68
2023/09/17 05:45:45;;;;;;;21.10;9.70;;;;;;;18.36;71.95;96198.50;4929802;29;20179;-69
2023/09/17 05:48:11;;;;;;;23.10;12.60;;;;;;;18.30;71.87;96202.47;4929233;29;20237;-68
2023/09/17 05:50:36;;;;;;;16.53;9.10;;;;;;;18.50;71.01;96202.75;4929484;29;20207;-68
2023/09/17 05:53:02;;;;;;;13.80;8.87;;;;;;;18.32;71.92;96199.72;4929946;29;20394;-68
2023/09/17 05:55:28;;;;;;;12.50;8.77;;;;;;;18.43;71.33;96214.81;4943113;29;20186;-69
2023/09/17 05:57:54;;;;;;;8.80;7.90;;;;;;;18.51;71.16;96223.03;4951539;29;20194;-69
2023/09/17 06:00:20;;;;;;;16.83;9.27;;;;;;;18.60;70.50;96217.00;4949899;29;20423;-68
2023/09/17 06:02:45;;;;;;;50.70;11.97;;;;;;;18.66;70.52;96213.84;4924811;29;20181;-67
2023/09/17 06:05:10;;;;;;;23.63;10.40;;;;;;;18.76;69.93;96216.63;4937883;29;20207;-69
2023/09/17 06:07:36;;;;;;;12.90;8.80;;;;;;;18.58;70.47;96210.94;4930457;29;20250;-67
2023/09/17 06:10:01;;;;;;;10.77;9.40;;;;;;;18.58;70.71;96222.41;4929993;29;20226;-67
2023/09/17 06:12:27;;;;;;;12.87;8.77;;;;;;;18.66;70.20;96235.13;4930151;29;20175;-68
2023/09/17 06:14:52;;;;;;;11.43;8.60;;;;;;;18.67;70.01;96228.81;4929668;29;20202;-67
2023/09/17 06:17:18;;;;;;;16.27;10.30;;;;;;;18.73;70.10;96228.34;4929330;29;20181;-67
2023/09/17 06:19:44;;;;;;;15.27;9.90;;;;;;;18.70;70.11;96225.91;4929030;29;20668;-69
2023/09/17 06:22:11;;;;;;;18.67;10.77;;;;;;;18.40;71.20;96231.81;4929512;29;20716;-67
2023/09/17 06:24:36;;;;;;;27.33;10.80;;;;;;;18.55;70.56;96235.13;4929067;29;20242;-67
2023/09/17 06:27:03;;;;;;;54.50;14.20;;;;;;;18.55;70.93;96230.63;4927483;29;21461;-67
2023/09/17 06:29:30;;;;;;;25.90;10.27;;;;;;;18.58;70.96;96221.56;4926491;29;20615;-68
2023/09/17 06:31:55;;;;;;;21.73;10.13;;;;;;;18.70;70.37;96220.59;4926072;29;20438;-69
2023/09/17 06:34:21;;;;;;;31.90;10.00;;;;;;;18.84;69.84;96227.50;4929531;29;20265;-69
2023/09/17 06:36:47;;;;;;;15.70;9.50;;;;;;;18.84;69.64;96222.19;4929110;29;20521;-68
2023/09/17 06:39:13;;;;;;;19.13;11.50;;;;;;;18.88;69.75;96222.81;4929048;29;20199;-69
2023/09/17 06:41:39;;;;;;;15.80;9.80;;;;;;;19.01;69.21;96212.84;4927843;29;20303;-69
2023/09/17 06:44:05;;;;;;;19.23;9.23;;;;;;;18.80;70.17;96221.63;4926772;29;20179;-68
2023/09/17 06:46:30;;;;;;;10.10;8.80;;;;;;;18.58;70.92;96227.72;4929494;29;21282;-68
2023/09/17 06:48:56;;;;;;;24.83;10.40;;;;;;;18.73;70.39;96233.66;4931247;29;20207;-70
2023/09/17 06:51:21;;;;;;;11.80;9.07;;;;;;;18.78;70.35;96228.00;4929998;29;20195;-70
2023/09/17 06:53:47;;;;;;;12.87;8.60;;;;;;;18.76;70.42;96219.28;4928413;29;20191;-68
2023/09/17 06:56:13;;;;;;;10.83;9.23;;;;;;;18.91;70.15;96227.88;4927009;29;20182;-70
2023/09/17 06:58:39;;;;;;;9.30;8.40;;;;;;;19.09;69.36;96222.91;4928917;29;20229;-69
2023/09/17 07:01:05;;;;;;;12.53;8.73;;;;;;;19.23;69.07;96225.28;4930224;29;20458;-69
2023/09/17 07:03:31;;;;;;;16.80;9.87;;;;;;;19.29;68.83;96234.56;4928947;29;20747;-69
2023/09/17 07:05:56;;;;;;;23.40;10.63;;;;;;;19.29;68.70;96226.59;4931760;29;20435;-68
2023/09/17 07:08:22;;;;;;;16.73;9.37;;;;;;;19.44;68.20;96225.31;4929986;29;20505;-68
2023/09/17 07:10:47;;;;;;;14.13;9.43;;;;;;;19.62;67.46;96233.63;4930164;29;20213;-69
2023/09/17 07:13:13;;;;;;;14.03;9.60;;;;;;;19.48;68.21;96232.09;4929669;29;20182;-69
2023/09/17 07:15:39;;;;;;;19.97;9.07;;;;;;;19.70;67.88;96238.31;4930704;29;20195;-68
2023/09/17 07:18:07;;;;;;;11.13;10.03;;;;;;;19.91;66.97;96225.88;4929866;29;20442;-69
2023/09/17 07:20:32;;;;;;;12.97;9.40;;;;;;;19.63;67.62;96225.50;4919498;29;20301;-67
2023/09/17 07:22:58;;;;;;;10.00;9.10;;;;;;;19.77;67.34;96232.38;4928507;29;20640;-69
2023/09/17 07:25:23;;;;;;;10.07;9.07;;;;;;;19.70;67.72;96231.22;4927431;29;20759;-68
2023/09/17 07:27:49;;;;;;;32.53;10.87;;;;;;;19.89;67.20;96230.50;4929386;29;20194;-69
2023/09/17 07:30:15;;;;;;;17.43;9.80;;;;;;;20.07;66.52;96238.75;4929061;29;20583;-67
2023/09/17 07:32:40;;;;;;;15.57;9.70;;;;;;;20.23;65.86;96238.31;4930115;29;20194;-67
2023/09/17 07:35:08;;;;;;;22.47;11.23;;;;;;;20.46;65.31;96234.50;4928580;29;20187;-68
2023/09/17 07:37:33;;;;;;;35.93;11.00;;;;;;;20.58;64.98;96231.81;4920432;29;20588;-69
2023/09/17 07:40:04;;;;;;;18.07;9.90;;;;;;;20.75;64.21;96239.16;4927468;29;20512;-69
2023/09/17 07:42:29;;;;;;;17.77;9.70;;;;;;;20.79;63.91;96232.59;4927635;29;20186;-71
2023/09/17 07:44:55;;;;;;;20.50;9.60;;;;;;;20.93;63.83;96234.03;4926972;29;20438;-70
2023/09/17 07:47:20;;;;;;;27.50;9.33;;;;;;;21.02;63.65;96233.19;4927553;29;20199;-68
2023/09/17 07:49:45;;;;;;;14.93;9.60;;;;;;;21.22;62.85;96234.13;4927277;29;20211;-70
2023/09/17 07:52:12;;;;;;;15.23;8.93;;;;;;;21.67;61.65;96238.97;4927774;29;20241;-69
2023/09/17 07:54:39;;;;;;;10.13;9.13;;;;;;;21.97;60.47;96239.84;4927913;29;20191;-70
2023/09/17 07:57:10;;;;;;;9.07;8.13;;;;;;;22.36;59.17;96242.47;4927322;29;20465;-69
2023/09/17 07:59:36;;;;;;;13.90;8.70;;;;;;;22.60;58.44;96236.63;4924035;29;20466;-70
2023/09/17 08:02:05;;;;;;;14.00;8.93;;;;;;;22.51;58.81;96248.19;4928546;29;20454;-70
2023/09/17 08:04:31;;;;;;;8.57;7.87;;;;;;;22.98;57.58;96249.03;4927192;29;20695;-68
2023/09/17 08:06:59;;;;;;;10.80;8.30;;;;;;;23.74;55.35;96237.22;4927160;29;20596;-69
2023/09/17 08:09:25;;;;;;;10.17;8.27;;;;;;;24.14;53.97;96235.84;4924951;29;20297;-69
2023/09/17 08:11:50;;;;;;;10.37;7.70;;;;;;;24.48;52.79;96232.47;4927778;29;20894;-70
2023/09/17 08:14:16;;;;;;;12.03;9.07;;;;;;;24.41;52.80;96236.75;4928077;29;20182;-70
2023/09/17 08:16:41;;;;;;;10.03;8.50;;;;;;;24.00;54.27;96236.41;4925382;29;20338;-68
2023/09/17 08:19:07;;;;;;;9.60;7.17;;;;;;;23.61;55.13;96245.56;4925791;29;20278;-68
2023/09/17 08:21:33;;;;;;;9.17;8.20;;;;;;;23.37;55.75;96248.84;4927396;29;20568;-67
2023/09/17 08:23:59;;;;;;;10.90;8.10;;;;;;;23.09;56.59;96250.69;4927647;29;20197;-70
2023/09/17 08:26:28;;;;;;;9.87;7.93;;;;;;;23.03;56.95;96245.91;4926162;29;20489;-70
2023/09/17 08:29:00;;;;;;;8.23;7.43;;;;;;;22.93;57.32;96245.94;4927092;29;20530;-70
2023/09/17 08:31:26;;;;;;;10.70;7.10;;;;;;;23.82;55.00;96236.44;4926500;29;20532;-69
2023/09/17 08:33:52;;;;;;;12.80;8.10;;;;;;;24.60;52.54;96241.94;4928198;28;20443;-71
2023/09/17 08:36:21;;;;;;;13.77;6.90;;;;;;;24.96;51.46;96247.16;4927224;29;20932;-71
2023/09/17 08:38:49;;;;;;;34.83;9.30;;;;;;;25.06;51.14;96237.16;4920215;29;20434;-70
2023/09/17 08:41:15;;;;;;;28.40;9.97;;;;;;;25.48;50.43;96241.66;4926695;29;20995;-69
2023/09/17 08:43:41;;;;;;;14.00;7.10;;;;;;;25.97;49.00;96240.94;4925265;29;20727;-69
2023/09/17 08:46:07;;;;;;;10.90;6.97;;;;;;;26.07;48.37;96255.06;4927049;29;20474;-68
2023/09/17 08:48:32;;;;;;;8.30;7.07;;;;;;;26.22;48.30;96249.88;4926582;29;20565;-69
2023/09/17 08:50:59;;;;;;;7.37;6.03;;;;;;;26.43;47.83;96245.81;4927569;29;20241;-68
2023/09/17 08:53:30;;;;;;;7.47;5.70;;;;;;;26.55;47.44;96249.84;4926722;29;20657;-68
2023/09/17 08:55:58;;;;;;;19.30;7.07;;;;;;;26.80;46.53;96237.19;4926602;29;20498;-68
2023/09/17 08:58:36;;;;;;;11.40;6.20;;;;;;;27.08;46.26;96239.47;4929409;28;20445;-68
2023/09/17 09:01:03;;;;;;;8.13;6.00;;;;;;;27.20;46.75;96247.03;4926219;29;20442;-70
2023/09/17 09:03:33;;;;;;;8.67;5.70;;;;;;;27.12;46.48;96243.47;4929386;29;20684;-70
2023/09/17 09:06:00;;;;;;;8.13;5.10;;;;;;;26.47;46.62;96228.31;4937644;29;20433;-69
2023/09/17 09:08:26;;;;;;;6.80;5.13;;;;;;;26.28;47.12;96237.59;4934989;29;20434;-69
2023/09/17 09:10:51;;;;;;;8.00;5.30;;;;;;;26.29;47.88;96239.25;4923744;29;20982;-68
2023/09/17 09:13:18;;;;;;;7.43;5.33;;;;;;;26.36;47.63;96234.88;4926952;29;20435;-69
2023/09/17 09:15:44;;;;;;;10.90;5.70;;;;;;;26.40;47.42;96247.00;4926043;29;20271;-69
2023/09/17 09:18:10;;;;;;;8.30;5.40;;;;;;;26.55;46.03;96241.78;4926833;29;21034;-70
2023/09/17 09:20:37;;;;;;;9.93;5.50;;;;;;;26.79;45.79;96236.38;4937609;29;20217;-69
2023/09/17 09:23:05;;;;;;;25.40;7.80;;;;;;;26.94;45.85;96233.78;4944978;29;20184;-70
2023/09/17 09:25:31;;;;;;;16.03;6.40;;;;;;;27.21;45.69;96232.56;4941490;29;20439;-69
2023/09/17 09:28:02;;;;;;;6.17;5.67;;;;;;;27.21;46.07;96231.69;4937501;29;20439;-69
2023/09/17 09:30:28;;;;;;;9.67;5.50;;;;;;;27.44;45.46;96231.75;4936222;29;20217;-68
2023/09/17 09:32:55;;;;;;;9.33;5.60;;;;;;;27.61;44.77;96225.25;4943671;28;20528;-67
2023/09/17 09:35:21;;;;;;;8.63;5.90;;;;;;;27.81;45.02;96225.63;4943405;29;20189;-68
2023/09/17 09:37:48;;;;;;;10.87;5.23;;;;;;;27.95;44.37;96231.31;4928700;29;20453;-68
2023/09/17 09:40:14;;;;;;;9.13;6.10;;;;;;;27.77;44.74;96237.78;4928219;29;20528;-67
2023/09/17 09:42:42;;;;;;;8.13;5.80;;;;;;;27.83;45.36;96229.03;4928670;29;20452;-68
2023/09/17 09:45:15;;;;;;;7.63;4.83;;;;;;;27.52;45.47;96230.84;4927092;29;20439;-68
2023/09/17 09:47:46;;;;;;;7.57;5.70;;;;;;;27.26;46.43;96234.72;4934517;29;20465;-67
2023/09/17 09:50:32;;;;;;;8.47;5.30;;;;;;;27.14;46.60;96220.78;4931135;29;20516;-68
2023/09/17 09:52:57;;;;;;;11.00;6.20;;;;;;;27.45;46.12;96228.06;4935563;29;20421;-67
2023/09/17 09:55:24;;;;;;;37.00;9.03;;;;;;;27.78;44.02;96215.22;4941059;29;20433;-67
2023/09/17 09:57:50;;;;;;;13.07;4.17;;;;;;;27.87;43.97;96216.00;4937876;29;20616;-68
2023/09/17 10:00:20;;;;;;;12.93;5.00;;;;;;;27.96;43.65;96214.09;4932824;29;20438;-70
2023/09/17 10:02:46;;;;;;;9.00;5.83;;;;;;;27.80;43.83;96212.31;4948837;29;20781;-68
2023/09/17 10:05:16;;;;;;;7.70;4.20;;;;;;;27.88;42.73;96206.09;4936135;29;20820;-68
2023/09/17 10:07:45;;;;;;;17.03;4.83;;;;;;;27.85;42.15;96205.41;4929092;29;20414;-67
2023/09/17 10:10:11;;;;;;;11.73;4.13;;;;;;;27.74;42.86;96202.28;4878528;29;20487;-66
2023/09/17 10:12:37;;;;;;;14.40;4.77;;;;;;;27.84;43.25;96203.72;4897259;29;20491;-67
2023/09/17 10:15:04;;;;;;;9.80;5.10;;;;;;;28.00;42.96;96199.25;4887510;29;20573;-67
2023/09/17 10:17:33;;;;;;;16.13;6.30;;;;;;;27.91;43.10;96189.53;4913613;29;20186;-67
2023/09/17 10:20:00;;;;;;;11.50;4.93;;;;;;;28.00;42.92;96188.44;4914045;29;20579;-68
2023/09/17 10:22:26;;;;;;;5.03;4.53;;;;;;;28.02;42.99;96187.25;4928780;29;20537;-69
2023/09/17 10:24:52;;;;;;;6.20;4.33;;;;;;;28.10;42.43;96185.50;4929306;29;20646;-67
2023/09/17 10:27:21;;;;;;;5.93;4.00;;;;;;;27.27;44.44;96184.38;4930589;29;20524;-68
2023/09/17 10:29:50;;;;;;;15.13;5.00;;;;;;;27.12;44.73;96179.69;4931194;29;20722;-67
2023/09/17 10:32:18;;;;;;;4.80;4.40;;;;;;;27.04;45.29;96171.63;4928020;29;20433;-67
2023/09/17 10:34:46;;;;;;;7.83;4.20;;;;;;;27.21;44.70;96177.81;4931881;29;20445;-66
2023/09/17 10:37:16;;;;;;;8.30;4.40;;;;;;;27.59;44.13;96175.22;4929737;29;20865;-68
2023/09/17 10:39:43;;;;;;;7.53;4.60;;;;;;;27.75;43.47;96171.56;4930007;29;20481;-67
2023/09/17 10:42:11;;;;;;;7.70;4.37;;;;;;;27.85;43.48;96162.28;4925061;29;20438;-68
2023/09/17 10:44:39;;;;;;;6.57;4.27;;;;;;;27.99;42.99;96167.88;4930498;29;20469;-68
2023/09/17 10:47:10;;;;;;;5.63;4.30;;;;;;;27.97;42.59;96165.38;4929199;29;20442;-68
2023/09/17 10:49:40;;;;;;;7.63;3.83;;;;;;;27.98;42.58;96160.81;4931608;29;20474;-67
2023/09/17 10:52:08;;;;;;;13.03;5.10;;;;;;;28.15;41.76;96165.03;4945466;29;20545;-68
2023/09/17 10:54:33;;;;;;;11.87;5.20;;;;;;;28.11;41.69;96152.91;4939244;29;20477;-67
2023/09/17 10:57:04;;;;;;;11.07;4.27;;;;;;;27.99;41.60;96160.66;4941498;29;20434;-67
2023/09/17 10:59:30;;;;;;;4.07;3.67;;;;;;;28.06;41.68;96153.50;4939659;29;20205;-67
2023/09/17 11:01:57;;;;;;;7.27;4.10;;;;;;;28.11;41.35;96152.09;4938035;29;20430;-67
2023/09/17 11:04:23;;;;;;;11.43;4.00;;;;;;;28.18;40.28;96150.34;4934776;29;20443;-68
2023/09/17 11:06:51;;;;;;;18.33;5.10;;;;;;;28.20;40.65;96153.69;4919635;29;20437;-69
2023/09/17 11:09:17;;;;;;;6.10;3.47;;;;;;;27.96;41.13;96144.81;4932366;29;20478;-68
2023/09/17 11:11:43;;;;;;;10.83;3.87;;;;;;;27.86;41.81;96157.72;4931974;29;20426;-67
2023/09/17 11:14:10;;;;;;;4.30;3.50;;;;;;;27.99;40.99;96160.66;4930699;29;20492;-67
2023/09/17 11:16:36;;;;;;;11.43;4.90;;;;;;;28.29;41.18;96158.00;4929874;29;21294;-67
2023/09/17 11:19:19;;;;;;;10.57;3.90;;;;;;;28.36;40.57;96158.94;4928806;29;20539;-68
2023/09/17 11:22:08;;;;;;;9.93;4.23;;;;;;;28.41;40.82;96161.91;4930093;29;20579;-68
2023/09/17 11:24:33;;;;;;;13.97;4.77;;;;;;;28.57;40.46;96157.41;4930454;29;20517;-68